sensor_id;sensor_type;location;lat;lon;timestamp;P1;durP1;ratioP1;P2;durP2;ratioP2
83054;SDS011;72877;52.130;5.582;2024-02-21T00:01:14;13.10;;;7.50;;
83054;SDS011;72877;52.130;5.582;2024-02-21T00:03:39;13.20;;;7.78;;
83054;SDS011;72877;52.130;5.582;2024-02-21T00:06:05;14.80;;;8.27;;
83054;SDS011;72877;52.130;5.582;2024-02-21T00:08:30;13.35;;;7.05;;
83054;SDS011;72877;52.130;5.582;2024-02-21T00:10:55;22.97;;;8.07;;
83054;SDS011;72877;52.130;5.582;2024-02-21T00:13:20;19.08;;;7.57;;
83054;SDS011;72877;52.130;5.582;2024-02-21T00:15:45;13.20;;;7.90;;
83054;SDS011;72877;52.130;5.582;2024-02-21T00:18:10;15.98;;;6.78;;
83054;SDS011;72877;52.130;5.582;2024-02-21T00:20:36;15.50;;;6.83;;
83054;SDS011;72877;52.130;5.582;2024-02-21T00:23:01;17.13;;;7.47;;
83054;SDS011;72877;52.130;5.582;2024-02-21T00:25:27;14.70;;;7.43;;
83054;SDS011;72877;52.130;5.582;2024-02-21T00:27:52;16.27;;;7.80;;
83054;SDS011;72877;52.130;5.582;2024-02-21T00:30:18;23.30;;;7.38;;
83054;SDS011;72877;52.130;5.582;2024-02-21T00:32:43;16.50;;;7.10;;
83054;SDS011;72877;52.130;5.582;2024-02-21T00:35:09;19.07;;;7.13;;
83054;SDS011;72877;52.130;5.582;2024-02-21T00:37:34;20.45;;;8.35;;
83054;SDS011;72877;52.130;5.582;2024-02-21T00:39:59;17.13;;;7.75;;
83054;SDS011;72877;52.130;5.582;2024-02-21T00:42:24;17.20;;;7.07;;
83054;SDS011;72877;52.130;5.582;2024-02-21T00:44:49;15.87;;;6.90;;
83054;SDS011;72877;52.130;5.582;2024-02-21T00:47:14;10.97;;;6.90;;
83054;SDS011;72877;52.130;5.582;2024-02-21T00:49:40;20.98;;;7.60;;
83054;SDS011;72877;52.130;5.582;2024-02-21T00:52:05;17.88;;;7.60;;
83054;SDS011;72877;52.130;5.582;2024-02-21T00:54:30;17.77;;;7.03;;
83054;SDS011;72877;52.130;5.582;2024-02-21T00:56:56;19.08;;;7.90;;
83054;SDS011;72877;52.130;5.582;2024-02-21T00:59:21;16.27;;;7.23;;
83054;SDS011;72877;52.130;5.582;2024-02-21T01:01:46;20.00;;;7.83;;
83054;SDS011;72877;52.130;5.582;2024-02-21T01:04:11;12.30;;;6.88;;
83054;SDS011;72877;52.130;5.582;2024-02-21T01:06:36;18.05;;;7.55;;
83054;SDS011;72877;52.130;5.582;2024-02-21T01:09:01;16.20;;;7.37;;
83054;SDS011;72877;52.130;5.582;2024-02-21T01:11:27;17.33;;;6.90;;
83054;SDS011;72877;52.130;5.582;2024-02-21T01:13:52;18.05;;;7.78;;
83054;SDS011;72877;52.130;5.582;2024-02-21T01:16:17;12.97;;;7.47;;
83054;SDS011;72877;52.130;5.582;2024-02-21T01:18:43;19.10;;;7.20;;
83054;SDS011;72877;52.130;5.582;2024-02-21T01:21:08;17.58;;;7.43;;
83054;SDS011;72877;52.130;5.582;2024-02-21T01:23:35;12.98;;;6.55;;
83054;SDS011;72877;52.130;5.582;2024-02-21T01:26:00;12.95;;;6.85;;
83054;SDS011;72877;52.130;5.582;2024-02-21T01:28:25;18.25;;;7.72;;
83054;SDS011;72877;52.130;5.582;2024-02-21T01:30:51;15.93;;;6.18;;
83054;SDS011;72877;52.130;5.582;2024-02-21T01:33:16;22.75;;;7.20;;
83054;SDS011;72877;52.130;5.582;2024-02-21T01:35:42;12.98;;;6.68;;
83054;SDS011;72877;52.130;5.582;2024-02-21T01:38:07;17.60;;;6.93;;
83054;SDS011;72877;52.130;5.582;2024-02-21T01:40:32;14.33;;;6.17;;
83054;SDS011;72877;52.130;5.582;2024-02-21T01:42:57;16.90;;;7.17;;
83054;SDS011;72877;52.130;5.582;2024-02-21T01:45:22;14.57;;;6.37;;
83054;SDS011;72877;52.130;5.582;2024-02-21T01:47:48;19.40;;;6.60;;
83054;SDS011;72877;52.130;5.582;2024-02-21T01:50:14;25.75;;;8.30;;
83054;SDS011;72877;52.130;5.582;2024-02-21T01:52:39;16.30;;;7.43;;
83054;SDS011;72877;52.130;5.582;2024-02-21T01:55:05;13.45;;;6.93;;
83054;SDS011;72877;52.130;5.582;2024-02-21T01:57:30;19.67;;;7.07;;
83054;SDS011;72877;52.130;5.582;2024-02-21T01:59:56;19.33;;;7.53;;
83054;SDS011;72877;52.130;5.582;2024-02-21T02:02:21;17.48;;;7.15;;
83054;SDS011;72877;52.130;5.582;2024-02-21T02:04:46;23.00;;;7.65;;
83054;SDS011;72877;52.130;5.582;2024-02-21T02:07:11;16.50;;;7.45;;
83054;SDS011;72877;52.130;5.582;2024-02-21T02:09:36;18.77;;;8.23;;
83054;SDS011;72877;52.130;5.582;2024-02-21T02:12:02;11.95;;;7.53;;
83054;SDS011;72877;52.130;5.582;2024-02-21T02:14:27;21.92;;;7.63;;
83054;SDS011;72877;52.130;5.582;2024-02-21T02:16:52;14.97;;;6.93;;
83054;SDS011;72877;52.130;5.582;2024-02-21T02:19:18;18.03;;;8.63;;
83054;SDS011;72877;52.130;5.582;2024-02-21T02:21:46;19.50;;;7.70;;
83054;SDS011;72877;52.130;5.582;2024-02-21T02:24:11;14.30;;;7.20;;
83054;SDS011;72877;52.130;5.582;2024-02-21T02:26:36;15.52;;;7.57;;
83054;SDS011;72877;52.130;5.582;2024-02-21T02:29:02;21.53;;;8.63;;
83054;SDS011;72877;52.130;5.582;2024-02-21T02:31:27;18.73;;;8.85;;
83054;SDS011;72877;52.130;5.582;2024-02-21T02:33:52;16.05;;;8.20;;
83054;SDS011;72877;52.130;5.582;2024-02-21T02:36:18;13.75;;;8.05;;
83054;SDS011;72877;52.130;5.582;2024-02-21T02:38:43;19.38;;;8.35;;
83054;SDS011;72877;52.130;5.582;2024-02-21T02:41:08;19.63;;;8.23;;
83054;SDS011;72877;52.130;5.582;2024-02-21T02:43:33;19.70;;;8.23;;
83054;SDS011;72877;52.130;5.582;2024-02-21T02:45:58;21.15;;;8.80;;
83054;SDS011;72877;52.130;5.582;2024-02-21T02:48:24;17.05;;;9.18;;
83054;SDS011;72877;52.130;5.582;2024-02-21T02:50:49;23.50;;;8.73;;
83054;SDS011;72877;52.130;5.582;2024-02-21T02:53:14;23.60;;;9.45;;
83054;SDS011;72877;52.130;5.582;2024-02-21T02:55:39;21.13;;;9.27;;
83054;SDS011;72877;52.130;5.582;2024-02-21T02:58:05;14.23;;;9.27;;
83054;SDS011;72877;52.130;5.582;2024-02-21T03:00:30;25.20;;;8.27;;
83054;SDS011;72877;52.130;5.582;2024-02-21T03:02:55;22.50;;;8.80;;
83054;SDS011;72877;52.130;5.582;2024-02-21T03:05:21;20.67;;;8.90;;
83054;SDS011;72877;52.130;5.582;2024-02-21T03:07:46;14.70;;;8.00;;
83054;SDS011;72877;52.130;5.582;2024-02-21T03:10:12;20.85;;;9.43;;
83054;SDS011;72877;52.130;5.582;2024-02-21T03:12:37;15.32;;;7.82;;
83054;SDS011;72877;52.130;5.582;2024-02-21T03:15:03;22.50;;;8.30;;
83054;SDS011;72877;52.130;5.582;2024-02-21T03:17:29;19.63;;;8.77;;
83054;SDS011;72877;52.130;5.582;2024-02-21T03:19:54;23.30;;;7.68;;
83054;SDS011;72877;52.130;5.582;2024-02-21T03:22:23;14.80;;;8.73;;
83054;SDS011;72877;52.130;5.582;2024-02-21T03:24:49;14.43;;;8.05;;
83054;SDS011;72877;52.130;5.582;2024-02-21T03:27:14;18.03;;;8.70;;
83054;SDS011;72877;52.130;5.582;2024-02-21T03:29:39;16.43;;;8.30;;
83054;SDS011;72877;52.130;5.582;2024-02-21T03:32:04;18.58;;;8.40;;
83054;SDS011;72877;52.130;5.582;2024-02-21T03:34:29;17.50;;;8.48;;
83054;SDS011;72877;52.130;5.582;2024-02-21T03:36:55;22.30;;;8.97;;
83054;SDS011;72877;52.130;5.582;2024-02-21T03:39:20;24.60;;;9.45;;
83054;SDS011;72877;52.130;5.582;2024-02-21T03:41:46;18.80;;;9.45;;
83054;SDS011;72877;52.130;5.582;2024-02-21T03:44:11;19.58;;;8.88;;
83054;SDS011;72877;52.130;5.582;2024-02-21T03:46:36;16.13;;;8.60;;
83054;SDS011;72877;52.130;5.582;2024-02-21T03:49:02;18.70;;;7.97;;
83054;SDS011;72877;52.130;5.582;2024-02-21T03:51:27;20.98;;;8.27;;
83054;SDS011;72877;52.130;5.582;2024-02-21T03:53:52;13.98;;;8.10;;
83054;SDS011;72877;52.130;5.582;2024-02-21T03:56:17;22.30;;;8.37;;
83054;SDS011;72877;52.130;5.582;2024-02-21T03:58:43;15.30;;;7.43;;
83054;SDS011;72877;52.130;5.582;2024-02-21T04:01:08;20.17;;;8.30;;
83054;SDS011;72877;52.130;5.582;2024-02-21T04:03:33;17.07;;;8.33;;
83054;SDS011;72877;52.130;5.582;2024-02-21T04:05:58;23.77;;;9.15;;
83054;SDS011;72877;52.130;5.582;2024-02-21T04:08:23;19.75;;;8.68;;
83054;SDS011;72877;52.130;5.582;2024-02-21T04:10:49;20.10;;;8.32;;
83054;SDS011;72877;52.130;5.582;2024-02-21T04:13:17;16.25;;;8.45;;
83054;SDS011;72877;52.130;5.582;2024-02-21T04:15:42;19.77;;;9.75;;
83054;SDS011;72877;52.130;5.582;2024-02-21T04:18:08;20.97;;;8.93;;
83054;SDS011;72877;52.130;5.582;2024-02-21T04:20:33;23.70;;;9.07;;
83054;SDS011;72877;52.130;5.582;2024-02-21T04:22:59;13.05;;;8.32;;
83054;SDS011;72877;52.130;5.582;2024-02-21T04:25:24;18.10;;;8.90;;
83054;SDS011;72877;52.130;5.582;2024-02-21T04:27:49;16.97;;;8.00;;
83054;SDS011;72877;52.130;5.582;2024-02-21T04:30:14;19.40;;;9.07;;
83054;SDS011;72877;52.130;5.582;2024-02-21T04:32:40;17.25;;;7.97;;
83054;SDS011;72877;52.130;5.582;2024-02-21T04:35:06;21.10;;;7.90;;
83054;SDS011;72877;52.130;5.582;2024-02-21T04:37:32;18.00;;;8.52;;
83054;SDS011;72877;52.130;5.582;2024-02-21T04:39:57;17.45;;;8.60;;
83054;SDS011;72877;52.130;5.582;2024-02-21T04:42:22;21.45;;;8.73;;
83054;SDS011;72877;52.130;5.582;2024-02-21T04:44:47;18.88;;;7.78;;
83054;SDS011;72877;52.130;5.582;2024-02-21T04:47:13;16.10;;;8.57;;
83054;SDS011;72877;52.130;5.582;2024-02-21T04:49:38;16.88;;;7.80;;
83054;SDS011;72877;52.130;5.582;2024-02-21T04:52:03;15.90;;;7.88;;
83054;SDS011;72877;52.130;5.582;2024-02-21T04:54:28;16.80;;;8.02;;
83054;SDS011;72877;52.130;5.582;2024-02-21T04:56:53;16.07;;;7.47;;
83054;SDS011;72877;52.130;5.582;2024-02-21T04:59:19;13.23;;;7.77;;
83054;SDS011;72877;52.130;5.582;2024-02-21T05:01:44;13.98;;;7.25;;
83054;SDS011;72877;52.130;5.582;2024-02-21T05:04:09;15.38;;;7.53;;
83054;SDS011;72877;52.130;5.582;2024-02-21T05:06:38;11.88;;;7.53;;
83054;SDS011;72877;52.130;5.582;2024-02-21T05:09:03;12.13;;;6.65;;
83054;SDS011;72877;52.130;5.582;2024-02-21T05:11:29;13.35;;;7.68;;
83054;SDS011;72877;52.130;5.582;2024-02-21T05:13:54;11.65;;;7.78;;
83054;SDS011;72877;52.130;5.582;2024-02-21T05:16:20;12.38;;;7.82;;
83054;SDS011;72877;52.130;5.582;2024-02-21T05:18:45;13.63;;;7.67;;
83054;SDS011;72877;52.130;5.582;2024-02-21T05:21:10;22.50;;;7.90;;
83054;SDS011;72877;52.130;5.582;2024-02-21T05:23:35;17.92;;;7.65;;
83054;SDS011;72877;52.130;5.582;2024-02-21T05:26:01;18.30;;;8.23;;
83054;SDS011;72877;52.130;5.582;2024-02-21T05:28:26;12.73;;;7.77;;
83054;SDS011;72877;52.130;5.582;2024-02-21T05:30:51;17.40;;;8.07;;
83054;SDS011;72877;52.130;5.582;2024-02-21T05:33:16;16.97;;;8.87;;
83054;SDS011;72877;52.130;5.582;2024-02-21T05:35:46;14.82;;;8.13;;
83054;SDS011;72877;52.130;5.582;2024-02-21T05:38:11;15.50;;;8.50;;
83054;SDS011;72877;52.130;5.582;2024-02-21T05:40:36;21.75;;;9.02;;
83054;SDS011;72877;52.130;5.582;2024-02-21T05:43:02;16.93;;;8.70;;
83054;SDS011;72877;52.130;5.582;2024-02-21T05:45:27;23.35;;;9.13;;
83054;SDS011;72877;52.130;5.582;2024-02-21T05:47:52;18.53;;;7.73;;
83054;SDS011;72877;52.130;5.582;2024-02-21T05:50:17;16.63;;;7.65;;
83054;SDS011;72877;52.130;5.582;2024-02-21T05:52:42;15.38;;;7.80;;
83054;SDS011;72877;52.130;5.582;2024-02-21T05:55:08;13.30;;;8.88;;
83054;SDS011;72877;52.130;5.582;2024-02-21T05:57:34;15.68;;;8.23;;
83054;SDS011;72877;52.130;5.582;2024-02-21T05:59:59;16.50;;;9.10;;
83054;SDS011;72877;52.130;5.582;2024-02-21T06:02:25;28.50;;;9.50;;
83054;SDS011;72877;52.130;5.582;2024-02-21T06:04:50;16.50;;;9.10;;
83054;SDS011;72877;52.130;5.582;2024-02-21T06:07:15;15.68;;;9.52;;
83054;SDS011;72877;52.130;5.582;2024-02-21T06:09:40;15.80;;;9.57;;
83054;SDS011;72877;52.130;5.582;2024-02-21T06:12:05;15.80;;;9.85;;
83054;SDS011;72877;52.130;5.582;2024-02-21T06:14:31;16.92;;;9.60;;
83054;SDS011;72877;52.130;5.582;2024-02-21T06:16:56;23.13;;;10.55;;
83054;SDS011;72877;52.130;5.582;2024-02-21T06:19:21;15.70;;;10.90;;
83054;SDS011;72877;52.130;5.582;2024-02-21T06:21:46;25.17;;;11.53;;
83054;SDS011;72877;52.130;5.582;2024-02-21T06:24:12;19.63;;;11.13;;
83054;SDS011;72877;52.130;5.582;2024-02-21T06:26:37;23.02;;;12.48;;
83054;SDS011;72877;52.130;5.582;2024-02-21T06:29:02;22.52;;;12.23;;
83054;SDS011;72877;52.130;5.582;2024-02-21T06:31:28;26.38;;;13.45;;
83054;SDS011;72877;52.130;5.582;2024-02-21T06:33:53;25.75;;;13.07;;
83054;SDS011;72877;52.130;5.582;2024-02-21T06:36:19;25.33;;;13.55;;
83054;SDS011;72877;52.130;5.582;2024-02-21T06:38:44;30.53;;;14.27;;
83054;SDS011;72877;52.130;5.582;2024-02-21T06:41:15;29.13;;;13.57;;
83054;SDS011;72877;52.130;5.582;2024-02-21T06:43:41;30.15;;;15.68;;
83054;SDS011;72877;52.130;5.582;2024-02-21T06:46:06;26.02;;;14.15;;
83054;SDS011;72877;52.130;5.582;2024-02-21T06:48:31;28.23;;;13.93;;
83054;SDS011;72877;52.130;5.582;2024-02-21T06:50:56;34.17;;;14.33;;
83054;SDS011;72877;52.130;5.582;2024-02-21T06:53:21;26.38;;;14.45;;
83054;SDS011;72877;52.130;5.582;2024-02-21T06:55:47;28.70;;;14.40;;
83054;SDS011;72877;52.130;5.582;2024-02-21T06:58:12;32.73;;;16.13;;
83054;SDS011;72877;52.130;5.582;2024-02-21T07:00:38;31.90;;;15.10;;
83054;SDS011;72877;52.130;5.582;2024-02-21T07:03:03;30.08;;;15.75;;
83054;SDS011;72877;52.130;5.582;2024-02-21T07:05:29;29.20;;;15.43;;
83054;SDS011;72877;52.130;5.582;2024-02-21T07:07:54;29.73;;;13.95;;
83054;SDS011;72877;52.130;5.582;2024-02-21T07:10:19;28.60;;;14.50;;
83054;SDS011;72877;52.130;5.582;2024-02-21T07:12:44;29.67;;;14.00;;
83054;SDS011;72877;52.130;5.582;2024-02-21T07:15:10;31.80;;;14.15;;
83054;SDS011;72877;52.130;5.582;2024-02-21T07:17:35;32.67;;;13.93;;
83054;SDS011;72877;52.130;5.582;2024-02-21T07:20:00;25.23;;;13.20;;
83054;SDS011;72877;52.130;5.582;2024-02-21T07:22:26;35.05;;;12.70;;
83054;SDS011;72877;52.130;5.582;2024-02-21T07:24:51;31.63;;;14.63;;
83054;SDS011;72877;52.130;5.582;2024-02-21T07:27:16;23.93;;;11.53;;
83054;SDS011;72877;52.130;5.582;2024-02-21T07:29:42;35.00;;;13.47;;
83054;SDS011;72877;52.130;5.582;2024-02-21T07:32:07;26.77;;;11.70;;
83054;SDS011;72877;52.130;5.582;2024-02-21T07:34:32;25.50;;;11.40;;
83054;SDS011;72877;52.130;5.582;2024-02-21T07:36:57;21.70;;;11.73;;
83054;SDS011;72877;52.130;5.582;2024-02-21T07:39:23;24.20;;;11.70;;
83054;SDS011;72877;52.130;5.582;2024-02-21T07:41:48;22.77;;;12.00;;
83054;SDS011;72877;52.130;5.582;2024-02-21T07:44:14;25.85;;;11.63;;
83054;SDS011;72877;52.130;5.582;2024-02-21T07:46:39;24.60;;;11.15;;
83054;SDS011;72877;52.130;5.582;2024-02-21T07:49:06;23.83;;;11.40;;
83054;SDS011;72877;52.130;5.582;2024-02-21T07:51:31;22.83;;;10.88;;
83054;SDS011;72877;52.130;5.582;2024-02-21T07:53:56;28.10;;;10.47;;
83054;SDS011;72877;52.130;5.582;2024-02-21T07:56:21;24.52;;;10.52;;
83054;SDS011;72877;52.130;5.582;2024-02-21T07:58:46;21.98;;;10.98;;
83054;SDS011;72877;52.130;5.582;2024-02-21T08:01:12;25.10;;;10.87;;
83054;SDS011;72877;52.130;5.582;2024-02-21T08:03:42;23.38;;;10.98;;
83054;SDS011;72877;52.130;5.582;2024-02-21T08:06:11;21.60;;;11.13;;
83054;SDS011;72877;52.130;5.582;2024-02-21T08:08:36;25.67;;;11.18;;
83054;SDS011;72877;52.130;5.582;2024-02-21T08:11:01;20.47;;;11.10;;
83054;SDS011;72877;52.130;5.582;2024-02-21T08:13:26;16.30;;;10.20;;
83054;SDS011;72877;52.130;5.582;2024-02-21T08:15:53;25.42;;;11.57;;
83054;SDS011;72877;52.130;5.582;2024-02-21T08:18:18;19.45;;;10.15;;
83054;SDS011;72877;52.130;5.582;2024-02-21T08:20:44;19.48;;;10.77;;
83054;SDS011;72877;52.130;5.582;2024-02-21T08:23:09;19.63;;;9.93;;
83054;SDS011;72877;52.130;5.582;2024-02-21T08:25:34;21.87;;;10.00;;
83054;SDS011;72877;52.130;5.582;2024-02-21T08:27:59;17.97;;;10.10;;
83054;SDS011;72877;52.130;5.582;2024-02-21T08:30:24;19.00;;;9.88;;
83054;SDS011;72877;52.130;5.582;2024-02-21T08:32:50;25.42;;;10.68;;
83054;SDS011;72877;52.130;5.582;2024-02-21T08:35:15;24.77;;;11.05;;
83054;SDS011;72877;52.130;5.582;2024-02-21T08:37:40;20.90;;;9.65;;
83054;SDS011;72877;52.130;5.582;2024-02-21T08:40:05;20.20;;;11.52;;
83054;SDS011;72877;52.130;5.582;2024-02-21T08:42:34;17.75;;;9.60;;
83054;SDS011;72877;52.130;5.582;2024-02-21T08:45:00;20.15;;;10.27;;
83054;SDS011;72877;52.130;5.582;2024-02-21T08:47:25;19.00;;;11.03;;
83054;SDS011;72877;52.130;5.582;2024-02-21T08:49:50;21.30;;;10.30;;
83054;SDS011;72877;52.130;5.582;2024-02-21T08:52:15;24.03;;;12.27;;
83054;SDS011;72877;52.130;5.582;2024-02-21T08:54:40;22.40;;;11.00;;
83054;SDS011;72877;52.130;5.582;2024-02-21T08:57:05;19.63;;;10.82;;
83054;SDS011;72877;52.130;5.582;2024-02-21T08:59:31;23.58;;;11.35;;
83054;SDS011;72877;52.130;5.582;2024-02-21T09:01:56;31.42;;;11.93;;
83054;SDS011;72877;52.130;5.582;2024-02-21T09:04:21;22.35;;;11.95;;
83054;SDS011;72877;52.130;5.582;2024-02-21T09:06:47;21.95;;;10.75;;
83054;SDS011;72877;52.130;5.582;2024-02-21T09:09:12;16.05;;;10.23;;
83054;SDS011;72877;52.130;5.582;2024-02-21T09:11:37;21.93;;;9.87;;
83054;SDS011;72877;52.130;5.582;2024-02-21T09:14:03;22.73;;;10.50;;
83054;SDS011;72877;52.130;5.582;2024-02-21T09:16:29;24.45;;;11.25;;
83054;SDS011;72877;52.130;5.582;2024-02-21T09:18:54;19.88;;;10.98;;
83054;SDS011;72877;52.130;5.582;2024-02-21T09:21:19;21.97;;;11.47;;
83054;SDS011;72877;52.130;5.582;2024-02-21T09:23:45;34.73;;;18.17;;
83054;SDS011;72877;52.130;5.582;2024-02-21T09:26:10;45.13;;;21.80;;
83054;SDS011;72877;52.130;5.582;2024-02-21T09:28:38;32.65;;;15.88;;
83054;SDS011;72877;52.130;5.582;2024-02-21T09:31:04;30.67;;;14.15;;
83054;SDS011;72877;52.130;5.582;2024-02-21T09:33:29;29.45;;;14.88;;
83054;SDS011;72877;52.130;5.582;2024-02-21T09:35:54;25.87;;;13.90;;
83054;SDS011;72877;52.130;5.582;2024-02-21T09:38:19;36.40;;;18.60;;
83054;SDS011;72877;52.130;5.582;2024-02-21T09:40:45;24.77;;;12.47;;
83054;SDS011;72877;52.130;5.582;2024-02-21T09:43:10;26.20;;;13.90;;
83054;SDS011;72877;52.130;5.582;2024-02-21T09:45:35;22.55;;;11.10;;
83054;SDS011;72877;52.130;5.582;2024-02-21T09:50:47;18.98;;;10.75;;
83054;SDS011;72877;52.130;5.582;2024-02-21T09:53:14;23.30;;;12.13;;
83054;SDS011;72877;52.130;5.582;2024-02-21T09:55:39;24.15;;;12.48;;
83054;SDS011;72877;52.130;5.582;2024-02-21T09:58:05;18.73;;;12.02;;
83054;SDS011;72877;52.130;5.582;2024-02-21T10:00:32;15.50;;;10.27;;
83054;SDS011;72877;52.130;5.582;2024-02-21T10:02:58;26.38;;;13.40;;
83054;SDS011;72877;52.130;5.582;2024-02-21T10:05:23;22.45;;;14.10;;
83054;SDS011;72877;52.130;5.582;2024-02-21T10:07:49;23.20;;;12.45;;
83054;SDS011;72877;52.130;5.582;2024-02-21T10:10:15;18.23;;;11.10;;
83054;SDS011;72877;52.130;5.582;2024-02-21T10:12:53;18.67;;;10.35;;
83054;SDS011;72877;52.130;5.582;2024-02-21T10:15:23;16.98;;;9.73;;
83054;SDS011;72877;52.130;5.582;2024-02-21T10:17:58;13.40;;;9.25;;
83054;SDS011;72877;52.130;5.582;2024-02-21T10:20:23;14.55;;;8.75;;
83054;SDS011;72877;52.130;5.582;2024-02-21T10:22:49;17.30;;;9.85;;
83054;SDS011;72877;52.130;5.582;2024-02-21T10:25:14;15.23;;;7.77;;
83054;SDS011;72877;52.130;5.582;2024-02-21T10:27:39;17.13;;;8.77;;
83054;SDS011;72877;52.130;5.582;2024-02-21T10:30:07;16.67;;;8.70;;
83054;SDS011;72877;52.130;5.582;2024-02-21T10:32:32;10.35;;;6.72;;
83054;SDS011;72877;52.130;5.582;2024-02-21T10:35:04;11.43;;;7.10;;
83054;SDS011;72877;52.130;5.582;2024-02-21T10:37:32;12.98;;;6.90;;
83054;SDS011;72877;52.130;5.582;2024-02-21T10:39:57;12.67;;;6.73;;
83054;SDS011;72877;52.130;5.582;2024-02-21T10:42:23;11.65;;;6.78;;
83054;SDS011;72877;52.130;5.582;2024-02-21T10:44:52;8.55;;;5.80;;
83054;SDS011;72877;52.130;5.582;2024-02-21T10:47:18;8.63;;;5.88;;
83054;SDS011;72877;52.130;5.582;2024-02-21T10:49:46;10.32;;;5.97;;
83054;SDS011;72877;52.130;5.582;2024-02-21T10:54:45;8.98;;;5.90;;
83054;SDS011;72877;52.130;5.582;2024-02-21T10:57:13;7.90;;;5.40;;
83054;SDS011;72877;52.130;5.582;2024-02-21T10:59:39;7.05;;;4.80;;
83054;SDS011;72877;52.130;5.582;2024-02-21T11:02:04;10.10;;;6.35;;
83054;SDS011;72877;52.130;5.582;2024-02-21T11:04:29;8.32;;;5.82;;
83054;SDS011;72877;52.130;5.582;2024-02-21T11:06:56;9.65;;;5.50;;
83054;SDS011;72877;52.130;5.582;2024-02-21T11:09:29;8.10;;;5.55;;
83054;SDS011;72877;52.130;5.582;2024-02-21T11:11:55;9.63;;;5.05;;
83054;SDS011;72877;52.130;5.582;2024-02-21T11:14:22;8.90;;;5.60;;
83054;SDS011;72877;52.130;5.582;2024-02-21T11:16:51;8.70;;;5.80;;
83054;SDS011;72877;52.130;5.582;2024-02-21T11:19:20;9.55;;;6.55;;
83054;SDS011;72877;52.130;5.582;2024-02-21T11:21:53;9.55;;;6.43;;
83054;SDS011;72877;52.130;5.582;2024-02-21T11:24:31;7.88;;;6.22;;
83054;SDS011;72877;52.130;5.582;2024-02-21T11:27:07;10.05;;;6.28;;
83054;SDS011;72877;52.130;5.582;2024-02-21T11:29:33;10.43;;;6.78;;
83054;SDS011;72877;52.130;5.582;2024-02-21T11:32:06;9.63;;;6.68;;
83054;SDS011;72877;52.130;5.582;2024-02-21T11:34:34;10.70;;;7.25;;
83054;SDS011;72877;52.130;5.582;2024-02-21T11:36:59;12.23;;;7.13;;
83054;SDS011;72877;52.130;5.582;2024-02-21T11:39:25;13.93;;;6.83;;
83054;SDS011;72877;52.130;5.582;2024-02-21T11:42:00;12.30;;;6.90;;
83054;SDS011;72877;52.130;5.582;2024-02-21T11:44:26;15.98;;;7.82;;
83054;SDS011;72877;52.130;5.582;2024-02-21T11:46:51;14.73;;;8.37;;
83054;SDS011;72877;52.130;5.582;2024-02-21T11:49:16;12.15;;;7.38;;
83054;SDS011;72877;52.130;5.582;2024-02-21T11:51:41;15.30;;;7.72;;
83054;SDS011;72877;52.130;5.582;2024-02-21T11:54:06;14.07;;;7.60;;
83054;SDS011;72877;52.130;5.582;2024-02-21T11:56:31;13.48;;;7.57;;
83054;SDS011;72877;52.130;5.582;2024-02-21T11:58:58;13.52;;;8.30;;
83054;SDS011;72877;52.130;5.582;2024-02-21T12:01:24;14.23;;;8.18;;
83054;SDS011;72877;52.130;5.582;2024-02-21T12:03:49;11.98;;;7.57;;
83054;SDS011;72877;52.130;5.582;2024-02-21T12:06:15;11.80;;;8.18;;
83054;SDS011;72877;52.130;5.582;2024-02-21T12:08:42;12.60;;;7.80;;
83054;SDS011;72877;52.130;5.582;2024-02-21T12:11:21;12.13;;;7.13;;
83054;SDS011;72877;52.130;5.582;2024-02-21T12:13:58;10.32;;;8.00;;
83054;SDS011;72877;52.130;5.582;2024-02-21T12:16:24;10.70;;;7.22;;
83054;SDS011;72877;52.130;5.582;2024-02-21T12:18:52;11.43;;;7.80;;
83054;SDS011;72877;52.130;5.582;2024-02-21T12:21:17;15.95;;;7.15;;
83054;SDS011;72877;52.130;5.582;2024-02-21T12:23:42;10.37;;;7.50;;
83054;SDS011;72877;52.130;5.582;2024-02-21T12:26:07;13.27;;;6.40;;
83054;SDS011;72877;52.130;5.582;2024-02-21T12:28:33;10.10;;;6.72;;
83054;SDS011;72877;52.130;5.582;2024-02-21T12:30:58;13.77;;;7.18;;
83054;SDS011;72877;52.130;5.582;2024-02-21T12:33:23;18.67;;;8.27;;
83054;SDS011;72877;52.130;5.582;2024-02-21T12:35:48;14.88;;;7.50;;
83054;SDS011;72877;52.130;5.582;2024-02-21T12:38:16;11.85;;;7.40;;
83054;SDS011;72877;52.130;5.582;2024-02-21T12:40:43;11.75;;;5.95;;
83054;SDS011;72877;52.130;5.582;2024-02-21T12:43:08;15.07;;;6.95;;
83054;SDS011;72877;52.130;5.582;2024-02-21T12:45:33;13.97;;;7.30;;
83054;SDS011;72877;52.130;5.582;2024-02-21T12:47:59;14.00;;;7.00;;
83054;SDS011;72877;52.130;5.582;2024-02-21T12:50:24;15.63;;;6.73;;
83054;SDS011;72877;52.130;5.582;2024-02-21T12:52:49;12.93;;;5.77;;
83054;SDS011;72877;52.130;5.582;2024-02-21T12:55:15;9.83;;;5.53;;
83054;SDS011;72877;52.130;5.582;2024-02-21T12:57:41;10.88;;;5.57;;
83054;SDS011;72877;52.130;5.582;2024-02-21T13:00:06;15.33;;;6.03;;
83054;SDS011;72877;52.130;5.582;2024-02-21T13:02:33;9.55;;;6.00;;
83054;SDS011;72877;52.130;5.582;2024-02-21T13:04:59;6.45;;;5.25;;
83054;SDS011;72877;52.130;5.582;2024-02-21T13:07:25;7.68;;;5.55;;
83054;SDS011;72877;52.130;5.582;2024-02-21T13:09:50;15.33;;;5.73;;
83054;SDS011;72877;52.130;5.582;2024-02-21T13:12:15;14.10;;;5.80;;
83054;SDS011;72877;52.130;5.582;2024-02-21T13:14:41;11.63;;;6.03;;
83054;SDS011;72877;52.130;5.582;2024-02-21T13:17:08;13.80;;;5.90;;
83054;SDS011;72877;52.130;5.582;2024-02-21T13:19:34;9.98;;;5.72;;
83054;SDS011;72877;52.130;5.582;2024-02-21T13:21:59;11.47;;;5.50;;
83054;SDS011;72877;52.130;5.582;2024-02-21T13:24:24;9.60;;;5.45;;
83054;SDS011;72877;52.130;5.582;2024-02-21T13:26:49;9.17;;;5.40;;
83054;SDS011;72877;52.130;5.582;2024-02-21T13:29:15;11.53;;;5.10;;
83054;SDS011;72877;52.130;5.582;2024-02-21T13:31:40;12.97;;;6.00;;
83054;SDS011;72877;52.130;5.582;2024-02-21T13:34:05;9.60;;;5.73;;
83054;SDS011;72877;52.130;5.582;2024-02-21T13:36:30;15.40;;;6.00;;
83054;SDS011;72877;52.130;5.582;2024-02-21T13:38:55;10.60;;;5.57;;
83054;SDS011;72877;52.130;5.582;2024-02-21T13:41:20;12.23;;;6.83;;
83054;SDS011;72877;52.130;5.582;2024-02-21T13:43:48;12.77;;;6.10;;
83054;SDS011;72877;52.130;5.582;2024-02-21T13:46:13;12.02;;;6.68;;
83054;SDS011;72877;52.130;5.582;2024-02-21T13:48:38;9.10;;;5.35;;
83054;SDS011;72877;52.130;5.582;2024-02-21T13:51:04;11.77;;;5.67;;
83054;SDS011;72877;52.130;5.582;2024-02-21T13:53:29;6.90;;;4.88;;
83054;SDS011;72877;52.130;5.582;2024-02-21T13:55:54;9.80;;;5.03;;
83054;SDS011;72877;52.130;5.582;2024-02-21T13:58:19;12.35;;;5.45;;
83054;SDS011;72877;52.130;5.582;2024-02-21T14:00:45;7.25;;;4.82;;
83054;SDS011;72877;52.130;5.582;2024-02-21T14:03:10;10.05;;;5.75;;
83054;SDS011;72877;52.130;5.582;2024-02-21T14:05:35;9.23;;;5.90;;
83054;SDS011;72877;52.130;5.582;2024-02-21T14:08:01;16.17;;;5.70;;
83054;SDS011;72877;52.130;5.582;2024-02-21T14:10:26;11.40;;;5.30;;
83054;SDS011;72877;52.130;5.582;2024-02-21T14:12:51;11.77;;;5.15;;
83054;SDS011;72877;52.130;5.582;2024-02-21T14:15:16;11.65;;;4.85;;
83054;SDS011;72877;52.130;5.582;2024-02-21T14:17:42;15.48;;;5.55;;
83054;SDS011;72877;52.130;5.582;2024-02-21T14:20:07;12.27;;;5.60;;
83054;SDS011;72877;52.130;5.582;2024-02-21T14:22:32;17.17;;;6.45;;
83054;SDS011;72877;52.130;5.582;2024-02-21T14:24:59;8.75;;;5.35;;
83054;SDS011;72877;52.130;5.582;2024-02-21T14:27:24;11.43;;;4.65;;
83054;SDS011;72877;52.130;5.582;2024-02-21T14:29:50;10.90;;;5.82;;